createdAt,value
2023-07-24T00:04:37.971Z,23.35
2023-07-24T00:09:39.607Z,23.31
2023-07-24T00:14:41.363Z,23.25
2023-07-24T00:19:43.232Z,23.20
2023-07-24T00:24:45.325Z,23.14
2023-07-24T00:29:47.026Z,23.08
2023-07-24T00:34:48.956Z,23.00
2023-07-24T00:39:50.866Z,22.92
2023-07-24T00:44:53.295Z,22.84
2023-07-24T00:49:56.416Z,22.77
2023-07-24T00:54:58.133Z,22.68
2023-07-24T01:00:00.821Z,22.64
2023-07-24T01:05:02.884Z,22.54
2023-07-24T01:10:04.986Z,22.30
2023-07-24T01:15:29.920Z,20.68
2023-07-24T01:20:36.095Z,20.77
2023-07-24T01:25:52.048Z,21.19
2023-07-24T01:30:54.503Z,21.43
2023-07-24T01:36:00.072Z,21.52
2023-07-24T01:41:02.482Z,21.60
2023-07-24T01:46:04.381Z,21.61
2023-07-24T01:51:06.514Z,21.62
2023-07-24T01:56:08.305Z,21.64
2023-07-24T02:01:10.067Z,21.63
2023-07-24T02:06:11.874Z,21.62
2023-07-24T02:11:13.604Z,21.57
2023-07-24T02:16:16.020Z,21.55
2023-07-24T02:21:17.894Z,21.53
2023-07-24T02:26:19.605Z,21.51
2023-07-24T02:31:21.568Z,21.51
2023-07-24T02:36:24.796Z,21.44
2023-07-24T02:41:26.647Z,21.36
2023-07-24T02:46:30.027Z,21.30
2023-07-24T02:51:33.232Z,21.16
2023-07-24T02:56:35.184Z,21.13
2023-07-24T03:01:37.737Z,21.12
2023-07-24T03:06:40.820Z,21.10
2023-07-24T03:11:42.754Z,21.04
2023-07-24T03:16:44.502Z,20.99
2023-07-24T03:21:46.255Z,20.96
2023-07-24T03:26:48.588Z,20.96
2023-07-24T03:31:50.243Z,21.02
2023-07-24T03:36:52.192Z,21.06
2023-07-24T03:41:54.386Z,20.82
2023-07-24T03:46:56.105Z,20.88
2023-07-24T03:51:57.918Z,20.94
2023-07-24T03:56:59.632Z,21.12
2023-07-24T04:02:01.339Z,21.33
2023-07-24T04:07:03.606Z,21.26
2023-07-24T04:12:06.069Z,21.53
2023-07-24T04:17:07.893Z,21.94
2023-07-24T04:22:10.140Z,22.01
2023-07-24T04:27:11.873Z,21.97
2023-07-24T04:32:13.629Z,21.82
2023-07-24T04:37:15.314Z,21.75
2023-07-24T04:42:17.632Z,21.59
2023-07-24T04:47:19.448Z,21.67
2023-07-24T04:52:21.223Z,21.76
2023-07-24T04:57:23.198Z,21.90
2023-07-24T05:02:24.957Z,22.04
2023-07-24T05:12:28.804Z,22.21
2023-07-24T05:17:30.667Z,22.25
2023-07-24T05:22:32.425Z,22.69
2023-07-24T05:27:34.296Z,23.39
2023-07-24T05:32:36.233Z,23.71
2023-07-24T05:37:38.158Z,23.72
2023-07-24T05:42:42.788Z,23.99
2023-07-24T05:47:44.692Z,24.36
2023-07-24T05:52:46.741Z,24.71
2023-07-24T05:57:48.676Z,24.84
2023-07-24T06:02:50.586Z,25.14
2023-07-24T06:07:52.420Z,25.32
2023-07-24T06:12:54.063Z,25.65
2023-07-24T06:17:55.831Z,25.58
2023-07-24T06:22:57.657Z,25.70
2023-07-24T06:27:59.726Z,25.87
2023-07-24T06:33:01.512Z,26.20
2023-07-24T06:38:03.255Z,26.48
2023-07-24T06:43:05.036Z,25.92
2023-07-24T06:48:06.838Z,25.73
2023-07-24T06:53:08.651Z,26.28
2023-07-24T06:58:10.632Z,26.58
2023-07-24T07:03:12.568Z,26.30
2023-07-24T07:08:14.390Z,26.65
2023-07-24T07:13:16.034Z,26.96
2023-07-24T07:18:18.588Z,26.58
2023-07-24T07:23:21.351Z,27.08
2023-07-24T07:28:23.177Z,27.44
2023-07-24T07:33:25.862Z,27.50
2023-07-24T07:38:27.678Z,27.78
2023-07-24T07:43:29.448Z,27.81
2023-07-24T07:48:31.323Z,28.17
2023-07-24T07:53:33.040Z,28.01
2023-07-24T08:03:36.847Z,28.88
2023-07-24T08:08:38.963Z,29.25
2023-07-24T08:13:40.658Z,29.69
2023-07-24T08:18:42.352Z,30.16
2023-07-24T08:23:44.258Z,30.55
2023-07-24T08:28:46.172Z,30.62
2023-07-24T08:33:47.959Z,30.68
2023-07-24T08:38:49.705Z,30.89
2023-07-24T08:43:53.293Z,30.99
2023-07-24T08:48:55.904Z,31.12
2023-07-24T08:53:58.072Z,31.55
2023-07-24T08:58:59.922Z,32.19
2023-07-24T09:04:01.920Z,32.75
2023-07-24T09:09:04.218Z,32.99
2023-07-24T09:19:26.761Z,33.73
2023-07-24T09:24:28.814Z,34.27
2023-07-24T09:29:34.783Z,34.29
2023-07-24T09:34:43.504Z,34.37
2023-07-24T09:39:47.989Z,34.62
2023-07-24T09:44:49.780Z,34.67
2023-07-24T09:49:53.847Z,35.06
2023-07-24T09:55:12.709Z,35.17
2023-07-24T10:00:15.467Z,35.26
2023-07-24T10:05:18.813Z,35.63
2023-07-24T10:10:22.205Z,35.47
2023-07-24T10:15:24.152Z,35.27
2023-07-24T10:20:34.599Z,35.51
2023-07-24T10:25:41.733Z,36.07
2023-07-24T10:30:44.270Z,36.17
2023-07-24T10:35:52.369Z,36.20
2023-07-24T10:41:02.364Z,36.35
2023-07-24T10:46:04.242Z,36.44
2023-07-24T10:51:10.273Z,36.39
2023-07-24T10:56:12.521Z,36.95
2023-07-24T11:01:15.896Z,37.37
2023-07-24T11:06:19.762Z,37.16
2023-07-24T11:11:21.687Z,37.06
2023-07-24T11:16:23.576Z,36.67
2023-07-24T11:21:25.608Z,36.48
2023-07-24T11:26:28.141Z,36.25
2023-07-24T11:31:38.508Z,36.74
2023-07-24T11:36:40.664Z,36.65
2023-07-24T11:41:42.657Z,36.52
2023-07-24T11:46:44.596Z,36.53
2023-07-24T11:51:46.397Z,36.18
2023-07-24T11:56:48.124Z,35.59
2023-07-24T12:01:50.290Z,35.39
2023-07-24T12:06:52.868Z,35.31
2023-07-24T12:12:00.053Z,35.42
2023-07-24T12:17:03.184Z,35.52
2023-07-24T12:22:05.390Z,34.90
2023-07-24T12:27:07.168Z,34.25
2023-07-24T12:32:09.138Z,34.14
2023-07-24T12:37:11.150Z,34.08
2023-07-24T12:42:13.267Z,33.79
2023-07-24T12:47:15.259Z,34.12
2023-07-24T12:52:17.556Z,34.35
2023-07-24T12:57:19.301Z,34.31
2023-07-24T13:02:21.116Z,34.24
2023-07-24T13:07:22.941Z,34.15
2023-07-24T13:12:24.843Z,34.08
2023-07-24T13:17:27.673Z,33.76
2023-07-24T13:22:29.442Z,33.83
2023-07-24T13:27:31.292Z,34.20
2023-07-24T13:32:33.287Z,34.34
2023-07-24T13:37:35.113Z,34.58
2023-07-24T13:42:36.870Z,35.00
2023-07-24T13:47:38.614Z,35.27
2023-07-24T13:52:40.478Z,35.01
2023-07-24T13:57:42.660Z,34.70
2023-07-24T14:02:44.447Z,34.73
2023-07-24T14:07:46.422Z,34.48
2023-07-24T14:12:48.286Z,34.35
2023-07-24T14:17:49.967Z,34.41
2023-07-24T14:22:51.809Z,34.14
2023-07-24T14:27:53.642Z,33.78
2023-07-24T14:32:55.329Z,33.94
2023-07-24T14:37:57.222Z,34.11
2023-07-24T14:42:59.025Z,34.28
2023-07-24T14:48:00.737Z,34.25
2023-07-24T14:53:02.454Z,34.38
2023-07-24T14:58:04.366Z,34.34
2023-07-24T15:03:06.176Z,34.14
2023-07-24T15:08:08.040Z,33.90
2023-07-24T15:13:11.281Z,33.69
2023-07-24T15:18:13.141Z,33.54
2023-07-24T15:23:15.045Z,33.55
2023-07-24T15:28:17.411Z,33.47
2023-07-24T15:33:19.371Z,33.51
2023-07-24T15:38:21.032Z,33.57
2023-07-24T15:43:25.273Z,33.54
2023-07-24T15:48:27.116Z,33.43
2023-07-24T15:53:29.943Z,33.58
2023-07-24T15:58:31.718Z,33.35
2023-07-24T16:03:33.589Z,33.29
2023-07-24T16:08:35.408Z,33.12
2023-07-24T16:13:40.180Z,32.87
2023-07-24T16:18:42.247Z,32.68
2023-07-24T16:23:44.088Z,32.61
2023-07-24T16:28:45.907Z,32.57
2023-07-24T16:33:50.011Z,32.52
2023-07-24T16:38:52.184Z,32.47
2023-07-24T16:43:54.003Z,32.35
2023-07-24T16:48:55.809Z,32.26
2023-07-24T16:53:57.734Z,32.19
2023-07-24T16:58:59.445Z,32.05
2023-07-24T17:04:01.203Z,31.98
2023-07-24T17:09:03.395Z,31.92
2023-07-24T17:14:05.128Z,31.83
2023-07-24T17:19:06.805Z,31.65
2023-07-24T17:24:08.563Z,31.56
2023-07-24T17:29:10.562Z,31.46
2023-07-24T17:34:12.172Z,31.34
2023-07-24T17:39:13.922Z,31.29
2023-07-24T17:44:15.620Z,31.16
2023-07-24T17:49:17.437Z,31.09
2023-07-24T17:54:19.092Z,31.01
2023-07-24T17:59:20.871Z,30.82
2023-07-24T18:04:22.938Z,30.72
2023-07-24T18:09:24.856Z,30.16
2023-07-24T18:14:26.787Z,29.54
2023-07-24T18:19:29.428Z,29.02
2023-07-24T18:24:31.280Z,28.74
2023-07-24T18:29:33.721Z,28.76
2023-07-24T18:34:35.526Z,28.67
2023-07-24T18:39:37.227Z,28.61
2023-07-24T18:44:38.951Z,28.45
2023-07-24T18:49:41.072Z,28.35
2023-07-24T18:54:42.999Z,28.16
2023-07-24T18:59:44.827Z,27.94
2023-07-24T19:04:46.739Z,27.82
2023-07-24T19:09:49.278Z,27.59
2023-07-24T19:14:51.179Z,27.45
2023-07-24T19:19:52.909Z,27.31
2023-07-24T19:24:55.393Z,27.15
2023-07-24T19:30:02.748Z,26.91
2023-07-24T19:35:05.106Z,26.80
2023-07-24T19:40:07.632Z,26.57
2023-07-24T19:45:09.757Z,26.44
2023-07-24T19:50:11.456Z,26.38
2023-07-24T19:55:13.546Z,26.24
2023-07-24T20:00:15.705Z,26.02
2023-07-24T20:05:17.569Z,25.95
2023-07-24T20:10:19.255Z,25.94
2023-07-24T20:15:21.110Z,25.87
2023-07-24T20:35:48.153Z,25.37
2023-07-24T20:40:50.097Z,25.31
2023-07-24T20:45:52.146Z,25.33
2023-07-24T20:50:54.286Z,25.31
2023-07-24T20:55:55.993Z,25.25
2023-07-24T21:00:57.680Z,25.19
2023-07-24T21:05:59.471Z,25.20
2023-07-24T21:11:01.241Z,25.12
2023-07-24T21:16:03.008Z,25.08
2023-07-24T21:21:07.160Z,25.01
2023-07-24T21:26:10.439Z,25.01
2023-07-24T21:31:13.619Z,25.00
2023-07-24T21:36:15.392Z,25.03
2023-07-24T21:41:17.219Z,25.00
2023-07-24T21:46:19.021Z,25.03
2023-07-24T21:51:20.935Z,25.04
2023-07-24T21:56:22.849Z,25.05
2023-07-24T22:01:24.651Z,24.99
2023-07-24T22:06:26.887Z,24.96
2023-07-24T22:11:29.647Z,24.88
2023-07-24T22:16:31.652Z,24.83
2023-07-24T22:21:33.766Z,24.79
2023-07-24T22:26:35.739Z,24.17
2023-07-24T22:31:37.483Z,23.65
2023-07-24T22:36:40.998Z,23.79
2023-07-24T22:41:44.848Z,24.03
2023-07-24T22:46:46.682Z,24.19
2023-07-24T22:51:48.545Z,24.23
2023-07-24T22:56:50.293Z,24.25
2023-07-24T23:01:54.229Z,23.75
2023-07-24T23:06:56.502Z,23.56
2023-07-24T23:11:58.188Z,23.53
2023-07-24T23:16:59.899Z,23.71
2023-07-24T23:22:01.607Z,23.88
2023-07-24T23:27:03.352Z,23.95
2023-07-24T23:32:05.429Z,23.96
2023-07-24T23:37:07.193Z,23.94
2023-07-24T23:42:08.856Z,23.99
2023-07-24T23:47:10.774Z,24.01
2023-07-24T23:52:12.677Z,23.99
2023-07-24T23:57:14.614Z,23.94
